sensor_id;sensor_type;location;lat;lon;timestamp;P1;durP1;ratioP1;P2;durP2;ratioP2
944;SDS011;459;48.676;9.034;2022-12-11T00:02:19;28.33;;;19.20;;
944;SDS011;459;48.676;9.034;2022-12-11T00:04:44;26.80;;;17.70;;
944;SDS011;459;48.676;9.034;2022-12-11T00:07:09;28.60;;;18.07;;
944;SDS011;459;48.676;9.034;2022-12-11T00:09:34;22.33;;;17.13;;
944;SDS011;459;48.676;9.034;2022-12-11T00:11:59;26.70;;;18.40;;
944;SDS011;459;48.676;9.034;2022-12-11T00:14:26;24.13;;;17.50;;
944;SDS011;459;48.676;9.034;2022-12-11T00:16:51;25.13;;;17.33;;
944;SDS011;459;48.676;9.034;2022-12-11T00:19:16;21.80;;;15.07;;
944;SDS011;459;48.676;9.034;2022-12-11T00:21:42;25.70;;;17.40;;
944;SDS011;459;48.676;9.034;2022-12-11T00:24:07;20.70;;;14.53;;
944;SDS011;459;48.676;9.034;2022-12-11T00:26:32;20.37;;;15.97;;
944;SDS011;459;48.676;9.034;2022-12-11T00:28:57;22.10;;;16.30;;
944;SDS011;459;48.676;9.034;2022-12-11T00:31:23;20.70;;;15.17;;
944;SDS011;459;48.676;9.034;2022-12-11T00:33:48;21.23;;;15.30;;
944;SDS011;459;48.676;9.034;2022-12-11T00:36:14;23.80;;;16.77;;
944;SDS011;459;48.676;9.034;2022-12-11T00:38:40;22.50;;;14.80;;
944;SDS011;459;48.676;9.034;2022-12-11T00:41:06;24.90;;;15.57;;
944;SDS011;459;48.676;9.034;2022-12-11T00:43:32;21.37;;;14.37;;
944;SDS011;459;48.676;9.034;2022-12-11T00:45:57;20.10;;;15.20;;
944;SDS011;459;48.676;9.034;2022-12-11T00:48:22;22.20;;;15.90;;
944;SDS011;459;48.676;9.034;2022-12-11T00:50:47;18.40;;;12.87;;
944;SDS011;459;48.676;9.034;2022-12-11T00:53:13;19.60;;;14.40;;
944;SDS011;459;48.676;9.034;2022-12-11T00:55:39;20.10;;;14.67;;
944;SDS011;459;48.676;9.034;2022-12-11T00:58:04;20.40;;;13.53;;
944;SDS011;459;48.676;9.034;2022-12-11T01:00:29;19.27;;;13.77;;
944;SDS011;459;48.676;9.034;2022-12-11T01:02:54;17.97;;;14.40;;
944;SDS011;459;48.676;9.034;2022-12-11T01:05:20;17.30;;;12.87;;
944;SDS011;459;48.676;9.034;2022-12-11T01:07:45;16.03;;;12.23;;
944;SDS011;459;48.676;9.034;2022-12-11T01:10:11;18.13;;;12.90;;
944;SDS011;459;48.676;9.034;2022-12-11T01:12:55;19.00;;;12.60;;
944;SDS011;459;48.676;9.034;2022-12-11T01:15:22;30.60;;;17.80;;
944;SDS011;459;48.676;9.034;2022-12-11T01:17:48;25.07;;;16.50;;
944;SDS011;459;48.676;9.034;2022-12-11T01:20:14;23.00;;;15.13;;
944;SDS011;459;48.676;9.034;2022-12-11T01:22:39;19.40;;;13.30;;
944;SDS011;459;48.676;9.034;2022-12-11T01:25:04;24.50;;;15.23;;
944;SDS011;459;48.676;9.034;2022-12-11T01:27:29;18.23;;;14.07;;
944;SDS011;459;48.676;9.034;2022-12-11T01:29:55;17.63;;;12.90;;
944;SDS011;459;48.676;9.034;2022-12-11T01:32:20;21.47;;;13.23;;
944;SDS011;459;48.676;9.034;2022-12-11T01:34:54;19.20;;;13.27;;
944;SDS011;459;48.676;9.034;2022-12-11T01:37:19;16.57;;;13.57;;
944;SDS011;459;48.676;9.034;2022-12-11T01:39:45;17.23;;;13.60;;
944;SDS011;459;48.676;9.034;2022-12-11T01:42:13;25.93;;;16.70;;
944;SDS011;459;48.676;9.034;2022-12-11T01:47:05;30.23;;;17.30;;
944;SDS011;459;48.676;9.034;2022-12-11T01:49:30;18.63;;;14.17;;
944;SDS011;459;48.676;9.034;2022-12-11T01:51:57;16.83;;;12.70;;
944;SDS011;459;48.676;9.034;2022-12-11T01:54:23;16.50;;;12.40;;
944;SDS011;459;48.676;9.034;2022-12-11T01:56:49;17.87;;;14.03;;
944;SDS011;459;48.676;9.034;2022-12-11T01:59:16;18.57;;;12.80;;
944;SDS011;459;48.676;9.034;2022-12-11T02:02:43;18.37;;;13.00;;
944;SDS011;459;48.676;9.034;2022-12-11T02:04:37;18.97;;;12.57;;
944;SDS011;459;48.676;9.034;2022-12-11T02:07:03;18.20;;;11.80;;
944;SDS011;459;48.676;9.034;2022-12-11T02:09:33;19.20;;;13.37;;
944;SDS011;459;48.676;9.034;2022-12-11T02:14:45;20.40;;;14.00;;
944;SDS011;459;48.676;9.034;2022-12-11T02:20:02;17.07;;;12.43;;
944;SDS011;459;48.676;9.034;2022-12-11T02:27:36;18.93;;;12.73;;
944;SDS011;459;48.676;9.034;2022-12-11T02:30:04;18.30;;;12.33;;
944;SDS011;459;48.676;9.034;2022-12-11T02:32:53;20.27;;;13.47;;
944;SDS011;459;48.676;9.034;2022-12-11T02:37:47;21.57;;;13.50;;
944;SDS011;459;48.676;9.034;2022-12-11T02:40:16;17.30;;;12.77;;
944;SDS011;459;48.676;9.034;2022-12-11T02:42:43;17.67;;;13.03;;
944;SDS011;459;48.676;9.034;2022-12-11T02:45:09;18.00;;;14.70;;
944;SDS011;459;48.676;9.034;2022-12-11T02:47:34;20.20;;;13.00;;
944;SDS011;459;48.676;9.034;2022-12-11T02:50:02;19.27;;;14.40;;
944;SDS011;459;48.676;9.034;2022-12-11T02:52:30;16.30;;;12.73;;
944;SDS011;459;48.676;9.034;2022-12-11T02:54:56;20.00;;;13.30;;
944;SDS011;459;48.676;9.034;2022-12-11T02:57:43;19.20;;;13.93;;
944;SDS011;459;48.676;9.034;2022-12-11T03:00:09;20.10;;;14.83;;
944;SDS011;459;48.676;9.034;2022-12-11T03:02:35;19.67;;;15.10;;
944;SDS011;459;48.676;9.034;2022-12-11T03:05:01;17.70;;;12.67;;
944;SDS011;459;48.676;9.034;2022-12-11T03:07:26;19.63;;;14.17;;
944;SDS011;459;48.676;9.034;2022-12-11T03:09:53;17.50;;;14.40;;
944;SDS011;459;48.676;9.034;2022-12-11T03:12:21;17.67;;;14.57;;
944;SDS011;459;48.676;9.034;2022-12-11T03:14:47;17.63;;;12.80;;
944;SDS011;459;48.676;9.034;2022-12-11T03:17:16;15.53;;;12.17;;
944;SDS011;459;48.676;9.034;2022-12-11T03:19:52;15.53;;;12.20;;
944;SDS011;459;48.676;9.034;2022-12-11T03:24:52;17.60;;;12.70;;
944;SDS011;459;48.676;9.034;2022-12-11T03:29:54;18.93;;;14.13;;
944;SDS011;459;48.676;9.034;2022-12-11T03:32:21;16.63;;;12.70;;
944;SDS011;459;48.676;9.034;2022-12-11T03:34:51;14.50;;;10.53;;
944;SDS011;459;48.676;9.034;2022-12-11T03:37:17;18.17;;;12.30;;
944;SDS011;459;48.676;9.034;2022-12-11T03:39:45;16.13;;;12.07;;
944;SDS011;459;48.676;9.034;2022-12-11T03:42:11;16.40;;;12.43;;
944;SDS011;459;48.676;9.034;2022-12-11T03:44:37;16.70;;;12.80;;
944;SDS011;459;48.676;9.034;2022-12-11T03:47:04;18.60;;;12.40;;
944;SDS011;459;48.676;9.034;2022-12-11T03:49:32;21.90;;;13.80;;
944;SDS011;459;48.676;9.034;2022-12-11T03:51:58;15.17;;;11.87;;
944;SDS011;459;48.676;9.034;2022-12-11T03:54:23;15.73;;;12.03;;
944;SDS011;459;48.676;9.034;2022-12-11T03:56:50;14.63;;;11.90;;
944;SDS011;459;48.676;9.034;2022-12-11T03:59:18;15.40;;;11.30;;
944;SDS011;459;48.676;9.034;2022-12-11T04:01:43;18.23;;;12.33;;
944;SDS011;459;48.676;9.034;2022-12-11T04:04:08;18.13;;;12.33;;
944;SDS011;459;48.676;9.034;2022-12-11T04:06:33;13.37;;;10.60;;
944;SDS011;459;48.676;9.034;2022-12-11T04:08:58;15.57;;;11.70;;
944;SDS011;459;48.676;9.034;2022-12-11T04:11:23;14.67;;;11.37;;
944;SDS011;459;48.676;9.034;2022-12-11T04:13:58;17.13;;;12.73;;
944;SDS011;459;48.676;9.034;2022-12-11T04:16:42;18.00;;;13.20;;
944;SDS011;459;48.676;9.034;2022-12-11T04:19:07;15.03;;;12.67;;
944;SDS011;459;48.676;9.034;2022-12-11T04:21:52;13.47;;;11.77;;
944;SDS011;459;48.676;9.034;2022-12-11T04:24:52;15.20;;;11.33;;
944;SDS011;459;48.676;9.034;2022-12-11T04:27:17;16.87;;;13.10;;
944;SDS011;459;48.676;9.034;2022-12-11T04:30:03;15.87;;;11.83;;
944;SDS011;459;48.676;9.034;2022-12-11T04:32:29;15.60;;;13.03;;
944;SDS011;459;48.676;9.034;2022-12-11T04:34:54;14.53;;;11.80;;
944;SDS011;459;48.676;9.034;2022-12-11T04:37:19;20.40;;;13.80;;
944;SDS011;459;48.676;9.034;2022-12-11T04:39:45;14.90;;;11.60;;
944;SDS011;459;48.676;9.034;2022-12-11T04:42:10;14.47;;;12.17;;
944;SDS011;459;48.676;9.034;2022-12-11T04:44:35;17.13;;;12.37;;
944;SDS011;459;48.676;9.034;2022-12-11T04:47:00;15.50;;;12.90;;
944;SDS011;459;48.676;9.034;2022-12-11T04:49:25;18.73;;;13.50;;
944;SDS011;459;48.676;9.034;2022-12-11T04:51:50;15.73;;;10.97;;
944;SDS011;459;48.676;9.034;2022-12-11T04:54:16;14.53;;;11.20;;
944;SDS011;459;48.676;9.034;2022-12-11T04:56:41;15.23;;;11.83;;
944;SDS011;459;48.676;9.034;2022-12-11T04:59:06;16.90;;;12.00;;
944;SDS011;459;48.676;9.034;2022-12-11T05:01:31;16.63;;;12.10;;
944;SDS011;459;48.676;9.034;2022-12-11T05:03:57;19.60;;;13.30;;
944;SDS011;459;48.676;9.034;2022-12-11T05:06:22;13.67;;;10.13;;
944;SDS011;459;48.676;9.034;2022-12-11T05:08:48;17.70;;;12.33;;
944;SDS011;459;48.676;9.034;2022-12-11T05:11:13;18.67;;;12.20;;
944;SDS011;459;48.676;9.034;2022-12-11T05:13:39;16.23;;;11.67;;
944;SDS011;459;48.676;9.034;2022-12-11T05:16:04;17.97;;;12.73;;
944;SDS011;459;48.676;9.034;2022-12-11T05:18:30;18.37;;;12.87;;
944;SDS011;459;48.676;9.034;2022-12-11T05:21:14;15.63;;;13.50;;
944;SDS011;459;48.676;9.034;2022-12-11T05:23:39;18.47;;;12.50;;
944;SDS011;459;48.676;9.034;2022-12-11T05:26:05;18.97;;;12.27;;
944;SDS011;459;48.676;9.034;2022-12-11T05:28:32;22.20;;;14.07;;
944;SDS011;459;48.676;9.034;2022-12-11T05:30:58;18.70;;;12.07;;
944;SDS011;459;48.676;9.034;2022-12-11T05:33:24;14.33;;;11.57;;
944;SDS011;459;48.676;9.034;2022-12-11T05:35:49;16.87;;;10.90;;
944;SDS011;459;48.676;9.034;2022-12-11T05:38:14;17.17;;;11.90;;
944;SDS011;459;48.676;9.034;2022-12-11T05:40:40;22.77;;;11.90;;
944;SDS011;459;48.676;9.034;2022-12-11T05:43:05;17.73;;;11.80;;
944;SDS011;459;48.676;9.034;2022-12-11T05:45:30;19.97;;;13.30;;
944;SDS011;459;48.676;9.034;2022-12-11T05:47:55;19.00;;;13.10;;
944;SDS011;459;48.676;9.034;2022-12-11T05:50:20;16.97;;;11.60;;
944;SDS011;459;48.676;9.034;2022-12-11T05:52:46;20.40;;;13.57;;
944;SDS011;459;48.676;9.034;2022-12-11T05:55:12;15.80;;;11.83;;
944;SDS011;459;48.676;9.034;2022-12-11T05:57:37;16.10;;;11.50;;
944;SDS011;459;48.676;9.034;2022-12-11T06:00:03;17.17;;;11.37;;
944;SDS011;459;48.676;9.034;2022-12-11T06:02:28;16.80;;;11.80;;
944;SDS011;459;48.676;9.034;2022-12-11T06:04:53;14.90;;;12.10;;
944;SDS011;459;48.676;9.034;2022-12-11T06:07:18;16.83;;;11.30;;
944;SDS011;459;48.676;9.034;2022-12-11T06:09:43;15.93;;;11.60;;
944;SDS011;459;48.676;9.034;2022-12-11T06:12:09;17.80;;;12.80;;
944;SDS011;459;48.676;9.034;2022-12-11T06:14:34;17.73;;;13.37;;
944;SDS011;459;48.676;9.034;2022-12-11T06:16:59;15.00;;;12.13;;
944;SDS011;459;48.676;9.034;2022-12-11T06:19:25;19.00;;;13.27;;
944;SDS011;459;48.676;9.034;2022-12-11T06:21:50;19.33;;;13.60;;
944;SDS011;459;48.676;9.034;2022-12-11T06:24:15;20.60;;;12.13;;
944;SDS011;459;48.676;9.034;2022-12-11T06:26:41;16.10;;;12.33;;
944;SDS011;459;48.676;9.034;2022-12-11T06:29:06;17.20;;;12.67;;
944;SDS011;459;48.676;9.034;2022-12-11T06:31:31;17.10;;;11.93;;
944;SDS011;459;48.676;9.034;2022-12-11T06:33:56;17.43;;;12.37;;
944;SDS011;459;48.676;9.034;2022-12-11T06:36:22;17.53;;;11.23;;
944;SDS011;459;48.676;9.034;2022-12-11T06:38:48;17.23;;;11.63;;
944;SDS011;459;48.676;9.034;2022-12-11T06:41:13;18.53;;;12.53;;
944;SDS011;459;48.676;9.034;2022-12-11T06:43:39;16.73;;;11.70;;
944;SDS011;459;48.676;9.034;2022-12-11T06:46:05;14.20;;;10.37;;
944;SDS011;459;48.676;9.034;2022-12-11T06:48:31;14.10;;;10.50;;
944;SDS011;459;48.676;9.034;2022-12-11T06:50:56;20.30;;;12.27;;
944;SDS011;459;48.676;9.034;2022-12-11T06:53:21;12.80;;;9.40;;
944;SDS011;459;48.676;9.034;2022-12-11T06:55:47;16.83;;;11.50;;
944;SDS011;459;48.676;9.034;2022-12-11T06:58:12;14.30;;;10.40;;
944;SDS011;459;48.676;9.034;2022-12-11T07:00:37;19.43;;;12.83;;
944;SDS011;459;48.676;9.034;2022-12-11T07:03:03;19.83;;;11.50;;
944;SDS011;459;48.676;9.034;2022-12-11T07:05:29;17.40;;;10.70;;
944;SDS011;459;48.676;9.034;2022-12-11T07:07:54;16.30;;;10.13;;
944;SDS011;459;48.676;9.034;2022-12-11T07:10:19;14.77;;;10.17;;
944;SDS011;459;48.676;9.034;2022-12-11T07:12:45;16.70;;;10.63;;
944;SDS011;459;48.676;9.034;2022-12-11T07:15:10;14.00;;;10.17;;
944;SDS011;459;48.676;9.034;2022-12-11T07:17:35;14.40;;;9.90;;
944;SDS011;459;48.676;9.034;2022-12-11T07:20:00;15.90;;;9.90;;
944;SDS011;459;48.676;9.034;2022-12-11T07:22:27;15.37;;;10.40;;
944;SDS011;459;48.676;9.034;2022-12-11T07:24:52;18.93;;;11.33;;
944;SDS011;459;48.676;9.034;2022-12-11T07:27:17;14.00;;;10.43;;
944;SDS011;459;48.676;9.034;2022-12-11T07:29:43;17.60;;;10.40;;
944;SDS011;459;48.676;9.034;2022-12-11T07:32:11;15.97;;;9.50;;
944;SDS011;459;48.676;9.034;2022-12-11T07:34:36;18.50;;;11.67;;
944;SDS011;459;48.676;9.034;2022-12-11T07:37:01;13.80;;;11.00;;
944;SDS011;459;48.676;9.034;2022-12-11T07:39:26;19.53;;;12.50;;
944;SDS011;459;48.676;9.034;2022-12-11T07:41:52;17.23;;;12.23;;
944;SDS011;459;48.676;9.034;2022-12-11T07:44:18;16.03;;;12.13;;
944;SDS011;459;48.676;9.034;2022-12-11T07:46:43;16.40;;;11.40;;
944;SDS011;459;48.676;9.034;2022-12-11T07:49:08;18.13;;;12.30;;
944;SDS011;459;48.676;9.034;2022-12-11T07:51:34;17.83;;;12.13;;
944;SDS011;459;48.676;9.034;2022-12-11T07:54:01;18.30;;;11.80;;
944;SDS011;459;48.676;9.034;2022-12-11T07:56:27;20.20;;;13.50;;
944;SDS011;459;48.676;9.034;2022-12-11T07:58:53;16.60;;;13.10;;
944;SDS011;459;48.676;9.034;2022-12-11T08:01:19;17.20;;;13.97;;
944;SDS011;459;48.676;9.034;2022-12-11T08:03:45;17.47;;;11.57;;
944;SDS011;459;48.676;9.034;2022-12-11T08:06:11;14.00;;;10.67;;
944;SDS011;459;48.676;9.034;2022-12-11T08:08:36;16.37;;;10.90;;
944;SDS011;459;48.676;9.034;2022-12-11T08:11:02;17.93;;;13.27;;
944;SDS011;459;48.676;9.034;2022-12-11T08:13:28;15.70;;;11.90;;
944;SDS011;459;48.676;9.034;2022-12-11T08:15:53;17.67;;;11.73;;
944;SDS011;459;48.676;9.034;2022-12-11T08:18:18;15.97;;;11.00;;
944;SDS011;459;48.676;9.034;2022-12-11T08:20:43;15.53;;;10.70;;
944;SDS011;459;48.676;9.034;2022-12-11T08:23:08;15.70;;;10.90;;
944;SDS011;459;48.676;9.034;2022-12-11T08:25:34;14.30;;;10.27;;
944;SDS011;459;48.676;9.034;2022-12-11T08:27:59;18.77;;;11.60;;
944;SDS011;459;48.676;9.034;2022-12-11T08:30:24;18.93;;;12.10;;
944;SDS011;459;48.676;9.034;2022-12-11T08:32:49;18.30;;;11.63;;
944;SDS011;459;48.676;9.034;2022-12-11T08:35:15;16.83;;;12.60;;
944;SDS011;459;48.676;9.034;2022-12-11T08:37:40;17.00;;;12.80;;
944;SDS011;459;48.676;9.034;2022-12-11T08:40:05;20.43;;;13.00;;
944;SDS011;459;48.676;9.034;2022-12-11T08:42:31;17.20;;;12.17;;
944;SDS011;459;48.676;9.034;2022-12-11T08:44:57;18.60;;;13.47;;
944;SDS011;459;48.676;9.034;2022-12-11T08:47:22;18.57;;;13.47;;
944;SDS011;459;48.676;9.034;2022-12-11T08:49:47;19.80;;;12.90;;
944;SDS011;459;48.676;9.034;2022-12-11T08:52:13;19.57;;;13.43;;
944;SDS011;459;48.676;9.034;2022-12-11T08:54:38;19.90;;;12.10;;
944;SDS011;459;48.676;9.034;2022-12-11T08:57:03;18.73;;;12.77;;
944;SDS011;459;48.676;9.034;2022-12-11T08:59:29;16.77;;;12.03;;
944;SDS011;459;48.676;9.034;2022-12-11T09:01:54;18.67;;;13.20;;
944;SDS011;459;48.676;9.034;2022-12-11T09:04:20;16.20;;;12.33;;
944;SDS011;459;48.676;9.034;2022-12-11T09:06:45;17.70;;;11.60;;
944;SDS011;459;48.676;9.034;2022-12-11T09:09:10;18.60;;;14.13;;
944;SDS011;459;48.676;9.034;2022-12-11T09:11:36;18.00;;;12.67;;
944;SDS011;459;48.676;9.034;2022-12-11T09:14:02;15.90;;;10.67;;
944;SDS011;459;48.676;9.034;2022-12-11T09:16:27;15.77;;;12.23;;
944;SDS011;459;48.676;9.034;2022-12-11T09:18:54;14.40;;;10.10;;
944;SDS011;459;48.676;9.034;2022-12-11T09:21:21;14.07;;;9.83;;
944;SDS011;459;48.676;9.034;2022-12-11T09:23:46;11.50;;;10.30;;
944;SDS011;459;48.676;9.034;2022-12-11T09:26:12;13.53;;;11.07;;
944;SDS011;459;48.676;9.034;2022-12-11T09:28:38;17.07;;;11.50;;
944;SDS011;459;48.676;9.034;2022-12-11T09:31:10;16.47;;;10.73;;
944;SDS011;459;48.676;9.034;2022-12-11T09:33:36;14.90;;;10.10;;
944;SDS011;459;48.676;9.034;2022-12-11T09:36:02;15.77;;;10.83;;
944;SDS011;459;48.676;9.034;2022-12-11T09:38:28;14.80;;;10.90;;
944;SDS011;459;48.676;9.034;2022-12-11T09:40:53;15.23;;;10.07;;
944;SDS011;459;48.676;9.034;2022-12-11T09:43:35;12.47;;;9.93;;
944;SDS011;459;48.676;9.034;2022-12-11T09:46:02;14.07;;;9.60;;
944;SDS011;459;48.676;9.034;2022-12-11T09:48:29;13.83;;;10.23;;
944;SDS011;459;48.676;9.034;2022-12-11T09:50:56;15.10;;;10.77;;
944;SDS011;459;48.676;9.034;2022-12-11T09:53:26;15.80;;;9.40;;
944;SDS011;459;48.676;9.034;2022-12-11T10:01:11;13.33;;;9.83;;
944;SDS011;459;48.676;9.034;2022-12-11T10:03:42;16.90;;;10.47;;
944;SDS011;459;48.676;9.034;2022-12-11T10:16:28;14.63;;;9.70;;
944;SDS011;459;48.676;9.034;2022-12-11T10:18:56;16.63;;;10.60;;
944;SDS011;459;48.676;9.034;2022-12-11T10:21:22;15.90;;;11.03;;
944;SDS011;459;48.676;9.034;2022-12-11T10:23:55;20.27;;;11.27;;
944;SDS011;459;48.676;9.034;2022-12-11T10:26:22;14.67;;;9.33;;
944;SDS011;459;48.676;9.034;2022-12-11T10:28:48;14.77;;;8.40;;
944;SDS011;459;48.676;9.034;2022-12-11T10:31:17;12.03;;;10.70;;
944;SDS011;459;48.676;9.034;2022-12-11T10:33:48;14.40;;;10.13;;
944;SDS011;459;48.676;9.034;2022-12-11T10:36:25;15.83;;;10.17;;
944;SDS011;459;48.676;9.034;2022-12-11T10:38:50;14.07;;;8.97;;
944;SDS011;459;48.676;9.034;2022-12-11T10:41:17;13.60;;;9.00;;
944;SDS011;459;48.676;9.034;2022-12-11T10:43:43;13.83;;;9.17;;
944;SDS011;459;48.676;9.034;2022-12-11T10:46:28;15.37;;;10.10;;
944;SDS011;459;48.676;9.034;2022-12-11T10:48:54;15.57;;;10.97;;
944;SDS011;459;48.676;9.034;2022-12-11T10:51:21;14.13;;;9.80;;
944;SDS011;459;48.676;9.034;2022-12-11T10:53:50;15.27;;;10.57;;
944;SDS011;459;48.676;9.034;2022-12-11T10:56:23;14.83;;;9.50;;
944;SDS011;459;48.676;9.034;2022-12-11T10:58:49;13.00;;;9.40;;
944;SDS011;459;48.676;9.034;2022-12-11T11:01:15;15.40;;;10.30;;
944;SDS011;459;48.676;9.034;2022-12-11T11:06:25;15.50;;;10.47;;
944;SDS011;459;48.676;9.034;2022-12-11T11:08:52;11.70;;;8.97;;
944;SDS011;459;48.676;9.034;2022-12-11T11:11:22;14.03;;;10.90;;
944;SDS011;459;48.676;9.034;2022-12-11T11:13:47;12.03;;;9.37;;
944;SDS011;459;48.676;9.034;2022-12-11T11:16:14;12.47;;;10.00;;
944;SDS011;459;48.676;9.034;2022-12-11T11:18:40;16.20;;;10.13;;
944;SDS011;459;48.676;9.034;2022-12-11T11:21:14;14.67;;;11.27;;
944;SDS011;459;48.676;9.034;2022-12-11T11:23:40;13.87;;;11.43;;
944;SDS011;459;48.676;9.034;2022-12-11T11:26:05;14.53;;;10.87;;
944;SDS011;459;48.676;9.034;2022-12-11T11:28:51;14.50;;;10.90;;
944;SDS011;459;48.676;9.034;2022-12-11T11:31:17;16.80;;;12.00;;
944;SDS011;459;48.676;9.034;2022-12-11T11:33:44;15.40;;;12.37;;
944;SDS011;459;48.676;9.034;2022-12-11T11:36:25;17.03;;;11.57;;
944;SDS011;459;48.676;9.034;2022-12-11T11:41:36;13.93;;;11.60;;
944;SDS011;459;48.676;9.034;2022-12-11T11:44:07;16.10;;;11.37;;
944;SDS011;459;48.676;9.034;2022-12-11T11:46:38;14.83;;;10.50;;
944;SDS011;459;48.676;9.034;2022-12-11T11:49:30;17.73;;;13.20;;
944;SDS011;459;48.676;9.034;2022-12-11T11:52:02;15.00;;;10.87;;
944;SDS011;459;48.676;9.034;2022-12-11T11:57:26;13.70;;;10.70;;
944;SDS011;459;48.676;9.034;2022-12-11T11:59:53;17.67;;;10.13;;
944;SDS011;459;48.676;9.034;2022-12-11T12:02:19;13.90;;;10.57;;
944;SDS011;459;48.676;9.034;2022-12-11T12:04:45;19.63;;;12.90;;
944;SDS011;459;48.676;9.034;2022-12-11T12:20:31;14.37;;;11.87;;
944;SDS011;459;48.676;9.034;2022-12-11T12:23:05;18.10;;;12.23;;
944;SDS011;459;48.676;9.034;2022-12-11T12:25:46;22.03;;;13.20;;
944;SDS011;459;48.676;9.034;2022-12-11T12:39:36;11.63;;;9.47;;
944;SDS011;459;48.676;9.034;2022-12-11T12:42:14;13.10;;;8.37;;
944;SDS011;459;48.676;9.034;2022-12-11T12:47:26;13.23;;;8.93;;
944;SDS011;459;48.676;9.034;2022-12-11T12:49:52;14.70;;;8.80;;
944;SDS011;459;48.676;9.034;2022-12-11T12:54:44;12.47;;;9.63;;
944;SDS011;459;48.676;9.034;2022-12-11T12:57:30;14.37;;;10.50;;
944;SDS011;459;48.676;9.034;2022-12-11T12:59:56;13.43;;;10.40;;
944;SDS011;459;48.676;9.034;2022-12-11T13:02:21;13.17;;;10.33;;
944;SDS011;459;48.676;9.034;2022-12-11T13:04:54;11.00;;;9.57;;
944;SDS011;459;48.676;9.034;2022-12-11T13:07:21;16.07;;;9.90;;
944;SDS011;459;48.676;9.034;2022-12-11T13:12:28;21.37;;;13.83;;
944;SDS011;459;48.676;9.034;2022-12-11T13:14:55;12.23;;;9.97;;
944;SDS011;459;48.676;9.034;2022-12-11T13:19:45;13.43;;;9.67;;
944;SDS011;459;48.676;9.034;2022-12-11T13:24:46;13.55;;;10.13;;
944;SDS011;459;48.676;9.034;2022-12-11T13:27:23;14.33;;;10.73;;
944;SDS011;459;48.676;9.034;2022-12-11T13:29:48;14.17;;;9.53;;
944;SDS011;459;48.676;9.034;2022-12-11T13:34:43;13.57;;;9.63;;
944;SDS011;459;48.676;9.034;2022-12-11T13:39:52;12.57;;;8.90;;
944;SDS011;459;48.676;9.034;2022-12-11T13:42:27;12.93;;;9.23;;
944;SDS011;459;48.676;9.034;2022-12-11T13:44:53;15.80;;;11.30;;
944;SDS011;459;48.676;9.034;2022-12-11T13:47:19;12.37;;;10.33;;
944;SDS011;459;48.676;9.034;2022-12-11T13:49:45;17.00;;;10.27;;
944;SDS011;459;48.676;9.034;2022-12-11T13:52:19;15.60;;;10.60;;
944;SDS011;459;48.676;9.034;2022-12-11T13:54:48;15.40;;;10.20;;
944;SDS011;459;48.676;9.034;2022-12-11T13:57:18;13.50;;;8.97;;
944;SDS011;459;48.676;9.034;2022-12-11T13:59:55;16.03;;;10.20;;
944;SDS011;459;48.676;9.034;2022-12-11T14:04:46;16.58;;;11.00;;
944;SDS011;459;48.676;9.034;2022-12-11T14:07:13;14.30;;;9.73;;
944;SDS011;459;48.676;9.034;2022-12-11T14:09:42;15.10;;;10.97;;
944;SDS011;459;48.676;9.034;2022-12-11T14:12:13;14.63;;;8.80;;
944;SDS011;459;48.676;9.034;2022-12-11T14:14:41;13.77;;;9.17;;
944;SDS011;459;48.676;9.034;2022-12-11T14:17:13;12.17;;;9.63;;
944;SDS011;459;48.676;9.034;2022-12-11T14:19:40;10.03;;;8.13;;
944;SDS011;459;48.676;9.034;2022-12-11T14:22:15;11.40;;;7.77;;
944;SDS011;459;48.676;9.034;2022-12-11T14:24:46;11.03;;;9.00;;
944;SDS011;459;48.676;9.034;2022-12-11T14:27:12;10.40;;;8.30;;
944;SDS011;459;48.676;9.034;2022-12-11T14:29:39;11.70;;;8.80;;
944;SDS011;459;48.676;9.034;2022-12-11T14:32:05;21.23;;;9.27;;
944;SDS011;459;48.676;9.034;2022-12-11T14:34:35;11.50;;;9.10;;
944;SDS011;459;48.676;9.034;2022-12-11T14:37:01;16.93;;;9.93;;
944;SDS011;459;48.676;9.034;2022-12-11T14:39:30;14.30;;;8.10;;
944;SDS011;459;48.676;9.034;2022-12-11T14:42:09;13.27;;;9.03;;
944;SDS011;459;48.676;9.034;2022-12-11T14:47:26;13.20;;;10.13;;
944;SDS011;459;48.676;9.034;2022-12-11T14:49:56;12.07;;;8.77;;
944;SDS011;459;48.676;9.034;2022-12-11T14:52:24;13.83;;;10.93;;
944;SDS011;459;48.676;9.034;2022-12-11T14:55:02;19.27;;;14.67;;
944;SDS011;459;48.676;9.034;2022-12-11T14:57:29;19.23;;;12.50;;
944;SDS011;459;48.676;9.034;2022-12-11T14:59:55;16.80;;;13.80;;
944;SDS011;459;48.676;9.034;2022-12-11T15:04:56;19.60;;;14.47;;
944;SDS011;459;48.676;9.034;2022-12-11T15:07:22;21.20;;;17.53;;
944;SDS011;459;48.676;9.034;2022-12-11T15:09:48;16.87;;;14.77;;
944;SDS011;459;48.676;9.034;2022-12-11T15:12:15;15.97;;;13.27;;
944;SDS011;459;48.676;9.034;2022-12-11T15:14:49;16.97;;;14.10;;
944;SDS011;459;48.676;9.034;2022-12-11T15:17:15;23.93;;;15.87;;
944;SDS011;459;48.676;9.034;2022-12-11T15:19:41;23.80;;;15.57;;
944;SDS011;459;48.676;9.034;2022-12-11T15:22:11;22.83;;;16.17;;
944;SDS011;459;48.676;9.034;2022-12-11T15:24:41;22.47;;;16.30;;
944;SDS011;459;48.676;9.034;2022-12-11T15:27:41;21.80;;;16.97;;
944;SDS011;459;48.676;9.034;2022-12-11T15:32:39;21.30;;;14.73;;
944;SDS011;459;48.676;9.034;2022-12-11T15:35:24;20.33;;;15.90;;
944;SDS011;459;48.676;9.034;2022-12-11T15:37:51;22.10;;;15.53;;
944;SDS011;459;48.676;9.034;2022-12-11T15:40:17;22.00;;;15.83;;
944;SDS011;459;48.676;9.034;2022-12-11T15:42:42;16.23;;;13.40;;
944;SDS011;459;48.676;9.034;2022-12-11T15:45:10;21.73;;;17.50;;
944;SDS011;459;48.676;9.034;2022-12-11T15:47:39;20.40;;;14.40;;
944;SDS011;459;48.676;9.034;2022-12-11T15:50:20;14.13;;;12.47;;
944;SDS011;459;48.676;9.034;2022-12-11T15:52:46;12.60;;;9.40;;
944;SDS011;459;48.676;9.034;2022-12-11T15:55:12;12.63;;;9.47;;
944;SDS011;459;48.676;9.034;2022-12-11T15:57:37;11.97;;;9.93;;
944;SDS011;459;48.676;9.034;2022-12-11T16:00:04;14.80;;;11.10;;
944;SDS011;459;48.676;9.034;2022-12-11T16:02:32;19.83;;;12.37;;
944;SDS011;459;48.676;9.034;2022-12-11T16:04:58;17.50;;;12.53;;
944;SDS011;459;48.676;9.034;2022-12-11T16:07:24;19.17;;;13.20;;
944;SDS011;459;48.676;9.034;2022-12-11T16:09:50;14.47;;;10.67;;
944;SDS011;459;48.676;9.034;2022-12-11T16:12:15;14.37;;;10.63;;
944;SDS011;459;48.676;9.034;2022-12-11T16:14:41;13.63;;;10.70;;
944;SDS011;459;48.676;9.034;2022-12-11T16:17:07;15.10;;;12.63;;
944;SDS011;459;48.676;9.034;2022-12-11T16:19:33;17.17;;;12.07;;
944;SDS011;459;48.676;9.034;2022-12-11T16:21:58;20.50;;;15.90;;
944;SDS011;459;48.676;9.034;2022-12-11T16:24:23;24.63;;;16.33;;
944;SDS011;459;48.676;9.034;2022-12-11T16:26:48;26.70;;;18.20;;
944;SDS011;459;48.676;9.034;2022-12-11T16:29:14;24.63;;;17.33;;
944;SDS011;459;48.676;9.034;2022-12-11T16:31:39;25.43;;;17.23;;
944;SDS011;459;48.676;9.034;2022-12-11T16:34:04;28.07;;;18.80;;
944;SDS011;459;48.676;9.034;2022-12-11T16:36:29;23.83;;;16.97;;
944;SDS011;459;48.676;9.034;2022-12-11T16:38:54;26.13;;;19.60;;
944;SDS011;459;48.676;9.034;2022-12-11T16:41:20;24.30;;;17.60;;
944;SDS011;459;48.676;9.034;2022-12-11T16:43:46;22.80;;;16.00;;
944;SDS011;459;48.676;9.034;2022-12-11T16:46:11;26.87;;;18.30;;
944;SDS011;459;48.676;9.034;2022-12-11T16:48:36;31.37;;;19.83;;
944;SDS011;459;48.676;9.034;2022-12-11T16:51:02;30.63;;;19.57;;
944;SDS011;459;48.676;9.034;2022-12-11T16:53:27;32.70;;;20.60;;
944;SDS011;459;48.676;9.034;2022-12-11T16:55:52;33.80;;;20.50;;
944;SDS011;459;48.676;9.034;2022-12-11T16:58:17;29.10;;;18.97;;